Terminal Aerodrome Forecast
Issued by NWS Sioux Falls, SD

Home | Current Version | Previous Version | Text Only | Print | Product List | Glossary On
Versions: 1 2 3 4 5 6 7 8 9 10 11 12 13 14
000
FTUS43 KFSD 221120
TAFHON
TAF
KHON 221120Z 2212/2312 24008KT P6SM SKC
     FM221800 21013G19KT P6SM FEW250
     FM222300 18008KT P6SM SCT120
     FM230500 23007KT P6SM BKN080
     FM230900 30014KT P6SM SCT120=

USA.gov is the U.S. government's official web portal to all federal, state and local government web resources and services.